sensor_id;sensor_type;location;lat;lon;timestamp;P1;durP1;ratioP1;P2;durP2;ratioP2
6951;SDS011;3515;50.138;8.502;2022-08-19T00:01:06;14;;;9;;
6951;SDS011;3515;50.138;8.502;2022-08-19T00:03:32;14;;;9;;
6951;SDS011;3515;50.138;8.502;2022-08-19T00:05:57;14;;;9;;
6951;SDS011;3515;50.138;8.502;2022-08-19T00:08:22;15;;;9;;
6951;SDS011;3515;50.138;8.502;2022-08-19T00:10:47;16;;;9;;
6951;SDS011;3515;50.138;8.502;2022-08-19T00:13:13;16;;;10;;
6951;SDS011;3515;50.138;8.502;2022-08-19T00:15:38;16;;;10;;
6951;SDS011;3515;50.138;8.502;2022-08-19T00:18:03;16;;;10;;
6951;SDS011;3515;50.138;8.502;2022-08-19T00:20:28;16;;;10;;
6951;SDS011;3515;50.138;8.502;2022-08-19T00:22:54;16;;;10;;
6951;SDS011;3515;50.138;8.502;2022-08-19T00:25:19;16;;;9;;
6951;SDS011;3515;50.138;8.502;2022-08-19T00:27:44;16;;;9;;
6951;SDS011;3515;50.138;8.502;2022-08-19T00:30:10;15;;;9;;
6951;SDS011;3515;50.138;8.502;2022-08-19T00:32:35;15;;;9;;
6951;SDS011;3515;50.138;8.502;2022-08-19T00:35:00;15;;;9;;
6951;SDS011;3515;50.138;8.502;2022-08-19T00:37:25;14;;;9;;
6951;SDS011;3515;50.138;8.502;2022-08-19T00:39:50;14;;;9;;
6951;SDS011;3515;50.138;8.502;2022-08-19T00:42:16;15;;;9;;
6951;SDS011;3515;50.138;8.502;2022-08-19T00:44:41;15;;;9;;
6951;SDS011;3515;50.138;8.502;2022-08-19T00:47:06;14;;;9;;
6951;SDS011;3515;50.138;8.502;2022-08-19T00:49:34;14;;;9;;
6951;SDS011;3515;50.138;8.502;2022-08-19T00:51:58;14;;;9;;
6951;SDS011;3515;50.138;8.502;2022-08-19T00:54:22;14;;;9;;
6951;SDS011;3515;50.138;8.502;2022-08-19T00:56:48;20;;;11;;
6951;SDS011;3515;50.138;8.502;2022-08-19T00:59:13;20;;;12;;
6951;SDS011;3515;50.138;8.502;2022-08-19T01:01:39;21;;;13;;
6951;SDS011;3515;50.138;8.502;2022-08-19T01:04:04;21;;;13;;
6951;SDS011;3515;50.138;8.502;2022-08-19T01:06:29;22;;;13;;
6951;SDS011;3515;50.138;8.502;2022-08-19T01:08:54;22;;;13;;
6951;SDS011;3515;50.138;8.502;2022-08-19T01:11:19;22;;;13;;
6951;SDS011;3515;50.138;8.502;2022-08-19T01:13:45;22;;;13;;
6951;SDS011;3515;50.138;8.502;2022-08-19T01:16:10;22;;;13;;
6951;SDS011;3515;50.138;8.502;2022-08-19T01:18:36;22;;;13;;
6951;SDS011;3515;50.138;8.502;2022-08-19T01:21:02;27;;;16;;
6951;SDS011;3515;50.138;8.502;2022-08-19T01:23:26;28;;;16;;
6951;SDS011;3515;50.138;8.502;2022-08-19T01:25:52;29;;;17;;
6951;SDS011;3515;50.138;8.502;2022-08-19T01:28:18;29;;;17;;
6951;SDS011;3515;50.138;8.502;2022-08-19T01:30:42;29;;;17;;
6951;SDS011;3515;50.138;8.502;2022-08-19T01:33:07;35;;;20;;
6951;SDS011;3515;50.138;8.502;2022-08-19T01:35:32;30;;;18;;
6951;SDS011;3515;50.138;8.502;2022-08-19T01:37:58;30;;;17;;
6951;SDS011;3515;50.138;8.502;2022-08-19T01:40:25;24;;;14;;
6951;SDS011;3515;50.138;8.502;2022-08-19T01:42:49;22;;;13;;
6951;SDS011;3515;50.138;8.502;2022-08-19T01:45:13;21;;;13;;
6951;SDS011;3515;50.138;8.502;2022-08-19T01:47:39;22;;;12;;
6951;SDS011;3515;50.138;8.502;2022-08-19T01:50:05;21;;;12;;
6951;SDS011;3515;50.138;8.502;2022-08-19T01:52:29;16;;;9;;
6951;SDS011;3515;50.138;8.502;2022-08-19T01:54:55;20;;;11;;
6951;SDS011;3515;50.138;8.502;2022-08-19T01:57:20;25;;;14;;
6951;SDS011;3515;50.138;8.502;2022-08-19T01:59:45;26;;;15;;
6951;SDS011;3515;50.138;8.502;2022-08-19T02:02:11;27;;;15;;
6951;SDS011;3515;50.138;8.502;2022-08-19T02:04:36;27;;;16;;
6951;SDS011;3515;50.138;8.502;2022-08-19T02:07:07;27;;;16;;
6951;SDS011;3515;50.138;8.502;2022-08-19T02:09:31;27;;;16;;
6951;SDS011;3515;50.138;8.502;2022-08-19T02:11:57;27;;;16;;
6951;SDS011;3515;50.138;8.502;2022-08-19T02:14:22;22;;;13;;
6951;SDS011;3515;50.138;8.502;2022-08-19T02:16:47;16;;;10;;
6951;SDS011;3515;50.138;8.502;2022-08-19T02:19:12;19;;;11;;
6951;SDS011;3515;50.138;8.502;2022-08-19T02:21:38;20;;;11;;
6951;SDS011;3515;50.138;8.502;2022-08-19T02:24:03;20;;;12;;
6951;SDS011;3515;50.138;8.502;2022-08-19T02:26:28;21;;;12;;
6951;SDS011;3515;50.138;8.502;2022-08-19T02:28:54;21;;;12;;
6951;SDS011;3515;50.138;8.502;2022-08-19T02:31:20;21;;;12;;
6951;SDS011;3515;50.138;8.502;2022-08-19T02:33:44;21;;;11;;
6951;SDS011;3515;50.138;8.502;2022-08-19T02:36:10;21;;;11;;
6951;SDS011;3515;50.138;8.502;2022-08-19T02:38:35;16;;;8;;
6951;SDS011;3515;50.138;8.502;2022-08-19T02:41:02;14;;;8;;
6951;SDS011;3515;50.138;8.502;2022-08-19T02:43:26;13;;;7;;
6951;SDS011;3515;50.138;8.502;2022-08-19T02:45:51;12;;;7;;
6951;SDS011;3515;50.138;8.502;2022-08-19T02:48:16;11;;;7;;
6951;SDS011;3515;50.138;8.502;2022-08-19T02:50:41;11;;;7;;
6951;SDS011;3515;50.138;8.502;2022-08-19T02:53:06;10;;;6;;
6951;SDS011;3515;50.138;8.502;2022-08-19T02:55:32;10;;;6;;
6951;SDS011;3515;50.138;8.502;2022-08-19T02:57:57;10;;;6;;
6951;SDS011;3515;50.138;8.502;2022-08-19T03:00:22;9;;;6;;
6951;SDS011;3515;50.138;8.502;2022-08-19T03:02:47;9;;;6;;
6951;SDS011;3515;50.138;8.502;2022-08-19T03:05:13;9;;;5;;
6951;SDS011;3515;50.138;8.502;2022-08-19T03:07:38;9;;;5;;
6951;SDS011;3515;50.138;8.502;2022-08-19T03:10:04;9;;;5;;
6951;SDS011;3515;50.138;8.502;2022-08-19T03:12:28;8;;;5;;
6951;SDS011;3515;50.138;8.502;2022-08-19T03:14:54;8;;;4;;
6951;SDS011;3515;50.138;8.502;2022-08-19T03:17:19;8;;;4;;
6951;SDS011;3515;50.138;8.502;2022-08-19T03:19:44;8;;;4;;
6951;SDS011;3515;50.138;8.502;2022-08-19T03:22:09;8;;;4;;
6951;SDS011;3515;50.138;8.502;2022-08-19T03:24:35;8;;;4;;
6951;SDS011;3515;50.138;8.502;2022-08-19T03:27:00;7;;;4;;
6951;SDS011;3515;50.138;8.502;2022-08-19T03:29:26;7;;;4;;
6951;SDS011;3515;50.138;8.502;2022-08-19T03:31:51;7;;;4;;
6951;SDS011;3515;50.138;8.502;2022-08-19T03:34:17;7;;;4;;
6951;SDS011;3515;50.138;8.502;2022-08-19T03:36:41;7;;;4;;
6951;SDS011;3515;50.138;8.502;2022-08-19T03:39:06;7;;;4;;
6951;SDS011;3515;50.138;8.502;2022-08-19T03:41:32;7;;;4;;
6951;SDS011;3515;50.138;8.502;2022-08-19T03:43:57;7;;;4;;
6951;SDS011;3515;50.138;8.502;2022-08-19T03:46:23;8;;;4;;
6951;SDS011;3515;50.138;8.502;2022-08-19T03:48:48;7;;;4;;
6951;SDS011;3515;50.138;8.502;2022-08-19T03:51:15;7;;;4;;
6951;SDS011;3515;50.138;8.502;2022-08-19T03:53:38;8;;;5;;
6951;SDS011;3515;50.138;8.502;2022-08-19T03:56:03;8;;;5;;
6951;SDS011;3515;50.138;8.502;2022-08-19T03:58:29;8;;;5;;
6951;SDS011;3515;50.138;8.502;2022-08-19T04:00:54;8;;;5;;
6951;SDS011;3515;50.138;8.502;2022-08-19T04:03:19;8;;;5;;
6951;SDS011;3515;50.138;8.502;2022-08-19T04:05:45;8;;;5;;
6951;SDS011;3515;50.138;8.502;2022-08-19T04:08:09;8;;;5;;
6951;SDS011;3515;50.138;8.502;2022-08-19T04:10:35;8;;;5;;
6951;SDS011;3515;50.138;8.502;2022-08-19T04:13:00;7;;;5;;
6951;SDS011;3515;50.138;8.502;2022-08-19T04:15:25;7;;;5;;
6951;SDS011;3515;50.138;8.502;2022-08-19T04:17:50;7;;;5;;
6951;SDS011;3515;50.138;8.502;2022-08-19T04:20:16;7;;;5;;
6951;SDS011;3515;50.138;8.502;2022-08-19T04:22:41;7;;;5;;
6951;SDS011;3515;50.138;8.502;2022-08-19T04:25:06;7;;;5;;
6951;SDS011;3515;50.138;8.502;2022-08-19T04:27:31;7;;;5;;
6951;SDS011;3515;50.138;8.502;2022-08-19T04:29:57;7;;;5;;
6951;SDS011;3515;50.138;8.502;2022-08-19T04:32:22;7;;;4;;
6951;SDS011;3515;50.138;8.502;2022-08-19T04:34:47;7;;;4;;
6951;SDS011;3515;50.138;8.502;2022-08-19T04:37:12;6;;;4;;
6951;SDS011;3515;50.138;8.502;2022-08-19T04:39:38;6;;;4;;
6951;SDS011;3515;50.138;8.502;2022-08-19T04:42:03;6;;;3;;
6951;SDS011;3515;50.138;8.502;2022-08-19T04:44:29;6;;;3;;
6951;SDS011;3515;50.138;8.502;2022-08-19T04:46:53;6;;;3;;
6951;SDS011;3515;50.138;8.502;2022-08-19T04:49:19;5;;;3;;
6951;SDS011;3515;50.138;8.502;2022-08-19T04:51:45;5;;;2;;
6951;SDS011;3515;50.138;8.502;2022-08-19T04:54:09;5;;;3;;
6951;SDS011;3515;50.138;8.502;2022-08-19T04:56:34;5;;;3;;
6951;SDS011;3515;50.138;8.502;2022-08-19T04:59:00;5;;;3;;
6951;SDS011;3515;50.138;8.502;2022-08-19T05:01:26;6;;;3;;
6951;SDS011;3515;50.138;8.502;2022-08-19T05:03:50;5;;;3;;
6951;SDS011;3515;50.138;8.502;2022-08-19T05:06:16;5;;;3;;
6951;SDS011;3515;50.138;8.502;2022-08-19T05:08:41;5;;;3;;
6951;SDS011;3515;50.138;8.502;2022-08-19T05:11:08;5;;;3;;
6951;SDS011;3515;50.138;8.502;2022-08-19T05:13:31;5;;;3;;
6951;SDS011;3515;50.138;8.502;2022-08-19T05:15:57;8;;;5;;
6951;SDS011;3515;50.138;8.502;2022-08-19T05:18:22;10;;;6;;
6951;SDS011;3515;50.138;8.502;2022-08-19T05:20:47;15;;;9;;
6951;SDS011;3515;50.138;8.502;2022-08-19T05:23:13;16;;;10;;
6951;SDS011;3515;50.138;8.502;2022-08-19T05:25:39;18;;;10;;
6951;SDS011;3515;50.138;8.502;2022-08-19T05:28:03;18;;;11;;
6951;SDS011;3515;50.138;8.502;2022-08-19T05:30:28;18;;;11;;
6951;SDS011;3515;50.138;8.502;2022-08-19T05:32:54;19;;;11;;
6951;SDS011;3515;50.138;8.502;2022-08-19T05:35:19;16;;;10;;
6951;SDS011;3515;50.138;8.502;2022-08-19T05:37:44;16;;;9;;
6951;SDS011;3515;50.138;8.502;2022-08-19T05:40:10;12;;;7;;
6951;SDS011;3515;50.138;8.502;2022-08-19T05:42:35;11;;;7;;
6951;SDS011;3515;50.138;8.502;2022-08-19T05:45:05;11;;;7;;
6951;SDS011;3515;50.138;8.502;2022-08-19T05:47:29;12;;;7;;
6951;SDS011;3515;50.138;8.502;2022-08-19T05:49:55;13;;;7;;
6951;SDS011;3515;50.138;8.502;2022-08-19T05:52:20;14;;;8;;
6951;SDS011;3515;50.138;8.502;2022-08-19T05:54:46;15;;;8;;
6951;SDS011;3515;50.138;8.502;2022-08-19T05:57:10;15;;;9;;
6951;SDS011;3515;50.138;8.502;2022-08-19T05:59:36;16;;;9;;
6951;SDS011;3515;50.138;8.502;2022-08-19T06:02:02;16;;;9;;
6951;SDS011;3515;50.138;8.502;2022-08-19T06:04:27;17;;;10;;
6951;SDS011;3515;50.138;8.502;2022-08-19T06:06:53;18;;;10;;
6951;SDS011;3515;50.138;8.502;2022-08-19T06:09:18;18;;;10;;
6951;SDS011;3515;50.138;8.502;2022-08-19T06:11:44;18;;;10;;
6951;SDS011;3515;50.138;8.502;2022-08-19T06:14:09;18;;;10;;
6951;SDS011;3515;50.138;8.502;2022-08-19T06:16:34;17;;;10;;
6951;SDS011;3515;50.138;8.502;2022-08-19T06:19:00;23;;;13;;
6951;SDS011;3515;50.138;8.502;2022-08-19T06:21:25;24;;;14;;
6951;SDS011;3515;50.138;8.502;2022-08-19T06:23:49;24;;;15;;
6951;SDS011;3515;50.138;8.502;2022-08-19T06:26:15;25;;;15;;
6951;SDS011;3515;50.138;8.502;2022-08-19T06:28:40;25;;;16;;
6951;SDS011;3515;50.138;8.502;2022-08-19T06:31:06;26;;;16;;
6951;SDS011;3515;50.138;8.502;2022-08-19T06:33:30;27;;;17;;
6951;SDS011;3515;50.138;8.502;2022-08-19T06:35:56;29;;;17;;
6951;SDS011;3515;50.138;8.502;2022-08-19T06:38:21;25;;;16;;
6951;SDS011;3515;50.138;8.502;2022-08-19T06:40:46;25;;;16;;
6951;SDS011;3515;50.138;8.502;2022-08-19T06:43:11;27;;;17;;
6951;SDS011;3515;50.138;8.502;2022-08-19T06:45:43;29;;;18;;
6951;SDS011;3515;50.138;8.502;2022-08-19T06:48:07;31;;;19;;
6951;SDS011;3515;50.138;8.502;2022-08-19T06:50:32;34;;;20;;
6951;SDS011;3515;50.138;8.502;2022-08-19T06:52:57;36;;;22;;
6951;SDS011;3515;50.138;8.502;2022-08-19T06:55:23;39;;;23;;
6951;SDS011;3515;50.138;8.502;2022-08-19T06:57:48;41;;;24;;
6951;SDS011;3515;50.138;8.502;2022-08-19T07:00:13;43;;;25;;
6951;SDS011;3515;50.138;8.502;2022-08-19T07:02:39;44;;;26;;
6951;SDS011;3515;50.138;8.502;2022-08-19T07:05:05;51;;;28;;
6951;SDS011;3515;50.138;8.502;2022-08-19T07:07:29;54;;;30;;
6951;SDS011;3515;50.138;8.502;2022-08-19T07:09:54;57;;;31;;
6951;SDS011;3515;50.138;8.502;2022-08-19T07:12:20;60;;;32;;
6951;SDS011;3515;50.138;8.502;2022-08-19T07:14:45;64;;;33;;
6951;SDS011;3515;50.138;8.502;2022-08-19T07:17:11;67;;;34;;
6951;SDS011;3515;50.138;8.502;2022-08-19T07:19:36;70;;;35;;
6951;SDS011;3515;50.138;8.502;2022-08-19T07:22:07;74;;;37;;
6951;SDS011;3515;50.138;8.502;2022-08-19T07:24:31;72;;;36;;
6951;SDS011;3515;50.138;8.502;2022-08-19T07:26:57;73;;;36;;
6951;SDS011;3515;50.138;8.502;2022-08-19T07:29:22;75;;;37;;
6951;SDS011;3515;50.138;8.502;2022-08-19T07:31:47;76;;;37;;
6951;SDS011;3515;50.138;8.502;2022-08-19T07:34:13;75;;;37;;
6951;SDS011;3515;50.138;8.502;2022-08-19T07:36:39;75;;;37;;
6951;SDS011;3515;50.138;8.502;2022-08-19T07:39:05;74;;;37;;
6951;SDS011;3515;50.138;8.502;2022-08-19T07:41:28;74;;;37;;
6951;SDS011;3515;50.138;8.502;2022-08-19T07:43:54;73;;;37;;
6951;SDS011;3515;50.138;8.502;2022-08-19T07:46:21;74;;;37;;
6951;SDS011;3515;50.138;8.502;2022-08-19T07:48:47;73;;;37;;
6951;SDS011;3515;50.138;8.502;2022-08-19T07:51:13;72;;;37;;
6951;SDS011;3515;50.138;8.502;2022-08-19T07:53:37;71;;;36;;
6951;SDS011;3515;50.138;8.502;2022-08-19T07:56:03;71;;;36;;
6951;SDS011;3515;50.138;8.502;2022-08-19T07:58:28;70;;;36;;
6951;SDS011;3515;50.138;8.502;2022-08-19T08:00:53;70;;;36;;
6951;SDS011;3515;50.138;8.502;2022-08-19T08:03:19;71;;;37;;
6951;SDS011;3515;50.138;8.502;2022-08-19T08:05:43;70;;;36;;
6951;SDS011;3515;50.138;8.502;2022-08-19T08:08:08;71;;;36;;
6951;SDS011;3515;50.138;8.502;2022-08-19T08:10:34;71;;;36;;
6951;SDS011;3515;50.138;8.502;2022-08-19T08:12:59;71;;;36;;
6951;SDS011;3515;50.138;8.502;2022-08-19T08:15:24;71;;;36;;
6951;SDS011;3515;50.138;8.502;2022-08-19T08:17:50;72;;;36;;
6951;SDS011;3515;50.138;8.502;2022-08-19T08:20:15;71;;;36;;
6951;SDS011;3515;50.138;8.502;2022-08-19T08:22:43;68;;;34;;
6951;SDS011;3515;50.138;8.502;2022-08-19T08:25:07;64;;;33;;
6951;SDS011;3515;50.138;8.502;2022-08-19T08:27:31;62;;;32;;
6951;SDS011;3515;50.138;8.502;2022-08-19T08:29:56;61;;;32;;
6951;SDS011;3515;50.138;8.502;2022-08-19T08:32:21;59;;;31;;
6951;SDS011;3515;50.138;8.502;2022-08-19T08:34:46;57;;;31;;
6951;SDS011;3515;50.138;8.502;2022-08-19T08:37:12;54;;;30;;
6951;SDS011;3515;50.138;8.502;2022-08-19T08:39:37;52;;;29;;
6951;SDS011;3515;50.138;8.502;2022-08-19T08:42:06;50;;;28;;
6951;SDS011;3515;50.138;8.502;2022-08-19T08:44:31;54;;;30;;
6951;SDS011;3515;50.138;8.502;2022-08-19T08:46:54;52;;;29;;
6951;SDS011;3515;50.138;8.502;2022-08-19T08:49:21;50;;;28;;
6951;SDS011;3515;50.138;8.502;2022-08-19T08:51:44;48;;;27;;
6951;SDS011;3515;50.138;8.502;2022-08-19T08:54:10;47;;;26;;
6951;SDS011;3515;50.138;8.502;2022-08-19T08:56:34;47;;;26;;
6951;SDS011;3515;50.138;8.502;2022-08-19T08:59:00;49;;;27;;
6951;SDS011;3515;50.138;8.502;2022-08-19T09:01:25;51;;;28;;
6951;SDS011;3515;50.138;8.502;2022-08-19T09:03:50;50;;;27;;
6951;SDS011;3515;50.138;8.502;2022-08-19T09:06:18;54;;;29;;
6951;SDS011;3515;50.138;8.502;2022-08-19T09:08:43;57;;;30;;
6951;SDS011;3515;50.138;8.502;2022-08-19T09:11:06;60;;;31;;
6951;SDS011;3515;50.138;8.502;2022-08-19T09:13:33;61;;;32;;
6951;SDS011;3515;50.138;8.502;2022-08-19T09:15:58;62;;;33;;
6951;SDS011;3515;50.138;8.502;2022-08-19T09:18:21;63;;;33;;
6951;SDS011;3515;50.138;8.502;2022-08-19T09:20:47;65;;;34;;
6951;SDS011;3515;50.138;8.502;2022-08-19T09:23:12;66;;;34;;
6951;SDS011;3515;50.138;8.502;2022-08-19T09:25:37;65;;;34;;
6951;SDS011;3515;50.138;8.502;2022-08-19T09:28:03;66;;;34;;
6951;SDS011;3515;50.138;8.502;2022-08-19T09:30:29;69;;;35;;
6951;SDS011;3515;50.138;8.502;2022-08-19T09:32:53;72;;;37;;
6951;SDS011;3515;50.138;8.502;2022-08-19T09:35:19;74;;;38;;
6951;SDS011;3515;50.138;8.502;2022-08-19T09:37:44;76;;;38;;
6951;SDS011;3515;50.138;8.502;2022-08-19T09:40:09;77;;;39;;
6951;SDS011;3515;50.138;8.502;2022-08-19T09:42:34;79;;;40;;
6951;SDS011;3515;50.138;8.502;2022-08-19T09:44:59;80;;;40;;
6951;SDS011;3515;50.138;8.502;2022-08-19T09:47:25;81;;;40;;
6951;SDS011;3515;50.138;8.502;2022-08-19T09:49:50;82;;;41;;
6951;SDS011;3515;50.138;8.502;2022-08-19T09:52:15;82;;;40;;
6951;SDS011;3515;50.138;8.502;2022-08-19T09:54:41;83;;;41;;
6951;SDS011;3515;50.138;8.502;2022-08-19T09:57:06;84;;;41;;
6951;SDS011;3515;50.138;8.502;2022-08-19T09:59:38;83;;;41;;
6951;SDS011;3515;50.138;8.502;2022-08-19T10:02:01;83;;;41;;
6951;SDS011;3515;50.138;8.502;2022-08-19T10:04:27;84;;;41;;
6951;SDS011;3515;50.138;8.502;2022-08-19T10:06:55;83;;;41;;
6951;SDS011;3515;50.138;8.502;2022-08-19T10:09:17;82;;;41;;
6951;SDS011;3515;50.138;8.502;2022-08-19T10:11:44;82;;;40;;
6951;SDS011;3515;50.138;8.502;2022-08-19T10:14:08;82;;;40;;
6951;SDS011;3515;50.138;8.502;2022-08-19T10:16:33;82;;;40;;
6951;SDS011;3515;50.138;8.502;2022-08-19T10:18:58;83;;;41;;
6951;SDS011;3515;50.138;8.502;2022-08-19T10:21:24;83;;;41;;
6951;SDS011;3515;50.138;8.502;2022-08-19T10:23:49;83;;;41;;
6951;SDS011;3515;50.138;8.502;2022-08-19T10:26:15;82;;;40;;
6951;SDS011;3515;50.138;8.502;2022-08-19T10:28:39;83;;;41;;
6951;SDS011;3515;50.138;8.502;2022-08-19T10:31:05;83;;;41;;
6951;SDS011;3515;50.138;8.502;2022-08-19T10:33:30;83;;;41;;
6951;SDS011;3515;50.138;8.502;2022-08-19T10:35:59;82;;;41;;
6951;SDS011;3515;50.138;8.502;2022-08-19T10:38:20;81;;;40;;
6951;SDS011;3515;50.138;8.502;2022-08-19T10:40:45;80;;;40;;
6951;SDS011;3515;50.138;8.502;2022-08-19T10:43:11;79;;;39;;
6951;SDS011;3515;50.138;8.502;2022-08-19T10:45:36;79;;;39;;
6951;SDS011;3515;50.138;8.502;2022-08-19T10:48:02;80;;;39;;
6951;SDS011;3515;50.138;8.502;2022-08-19T10:50:26;80;;;39;;
6951;SDS011;3515;50.138;8.502;2022-08-19T10:52:52;78;;;39;;
6951;SDS011;3515;50.138;8.502;2022-08-19T10:55:19;77;;;38;;
6951;SDS011;3515;50.138;8.502;2022-08-19T10:57:42;77;;;38;;
6951;SDS011;3515;50.138;8.502;2022-08-19T11:00:09;77;;;38;;
6951;SDS011;3515;50.138;8.502;2022-08-19T11:02:33;77;;;38;;
6951;SDS011;3515;50.138;8.502;2022-08-19T11:04:58;78;;;38;;
6951;SDS011;3515;50.138;8.502;2022-08-19T11:07:23;78;;;39;;
6951;SDS011;3515;50.138;8.502;2022-08-19T11:09:49;78;;;39;;
6951;SDS011;3515;50.138;8.502;2022-08-19T11:12:14;79;;;39;;
6951;SDS011;3515;50.138;8.502;2022-08-19T11:14:39;81;;;40;;
6951;SDS011;3515;50.138;8.502;2022-08-19T11:17:05;82;;;40;;
6951;SDS011;3515;50.138;8.502;2022-08-19T11:19:30;83;;;41;;
6951;SDS011;3515;50.138;8.502;2022-08-19T11:21:55;84;;;40;;
6951;SDS011;3515;50.138;8.502;2022-08-19T11:24:22;82;;;40;;
6951;SDS011;3515;50.138;8.502;2022-08-19T11:26:46;82;;;40;;
6951;SDS011;3515;50.138;8.502;2022-08-19T11:29:12;81;;;40;;
6951;SDS011;3515;50.138;8.502;2022-08-19T11:31:36;80;;;40;;
6951;SDS011;3515;50.138;8.502;2022-08-19T11:34:03;79;;;39;;
6951;SDS011;3515;50.138;8.502;2022-08-19T11:36:26;78;;;39;;
6951;SDS011;3515;50.138;8.502;2022-08-19T11:38:52;77;;;38;;
6951;SDS011;3515;50.138;8.502;2022-08-19T11:41:18;76;;;38;;
6951;SDS011;3515;50.138;8.502;2022-08-19T11:43:42;76;;;38;;
6951;SDS011;3515;50.138;8.502;2022-08-19T11:46:08;75;;;38;;
6951;SDS011;3515;50.138;8.502;2022-08-19T11:48:33;75;;;37;;
6951;SDS011;3515;50.138;8.502;2022-08-19T11:50:58;74;;;37;;
6951;SDS011;3515;50.138;8.502;2022-08-19T11:53:23;73;;;37;;
6951;SDS011;3515;50.138;8.502;2022-08-19T11:55:52;72;;;36;;
6951;SDS011;3515;50.138;8.502;2022-08-19T11:58:15;71;;;36;;
6951;SDS011;3515;50.138;8.502;2022-08-19T12:00:39;71;;;36;;
6951;SDS011;3515;50.138;8.502;2022-08-19T12:03:04;70;;;35;;
6951;SDS011;3515;50.138;8.502;2022-08-19T12:05:30;70;;;35;;
6951;SDS011;3515;50.138;8.502;2022-08-19T12:07:55;69;;;35;;
6951;SDS011;3515;50.138;8.502;2022-08-19T12:10:20;69;;;35;;
6951;SDS011;3515;50.138;8.502;2022-08-19T12:12:45;69;;;35;;
6951;SDS011;3515;50.138;8.502;2022-08-19T12:15:11;70;;;35;;
6951;SDS011;3515;50.138;8.502;2022-08-19T12:17:36;70;;;35;;
6951;SDS011;3515;50.138;8.502;2022-08-19T12:20:02;70;;;35;;
6951;SDS011;3515;50.138;8.502;2022-08-19T12:22:27;70;;;35;;
6951;SDS011;3515;50.138;8.502;2022-08-19T12:24:52;71;;;35;;
6951;SDS011;3515;50.138;8.502;2022-08-19T12:27:17;73;;;36;;
6951;SDS011;3515;50.138;8.502;2022-08-19T12:29:42;73;;;36;;
6951;SDS011;3515;50.138;8.502;2022-08-19T12:32:08;73;;;36;;
6951;SDS011;3515;50.138;8.502;2022-08-19T12:34:33;73;;;36;;
6951;SDS011;3515;50.138;8.502;2022-08-19T12:36:58;73;;;36;;
6951;SDS011;3515;50.138;8.502;2022-08-19T12:39:24;74;;;36;;
6951;SDS011;3515;50.138;8.502;2022-08-19T12:41:49;74;;;37;;
6951;SDS011;3515;50.138;8.502;2022-08-19T12:44:14;74;;;37;;
6951;SDS011;3515;50.138;8.502;2022-08-19T12:46:39;74;;;37;;
6951;SDS011;3515;50.138;8.502;2022-08-19T12:49:04;74;;;37;;
6951;SDS011;3515;50.138;8.502;2022-08-19T12:51:30;74;;;37;;
6951;SDS011;3515;50.138;8.502;2022-08-19T12:53:55;74;;;37;;
6951;SDS011;3515;50.138;8.502;2022-08-19T12:56:20;74;;;37;;
6951;SDS011;3515;50.138;8.502;2022-08-19T12:58:45;74;;;38;;
6951;SDS011;3515;50.138;8.502;2022-08-19T13:01:11;74;;;37;;
6951;SDS011;3515;50.138;8.502;2022-08-19T13:03:36;73;;;37;;
6951;SDS011;3515;50.138;8.502;2022-08-19T13:06:01;73;;;37;;
6951;SDS011;3515;50.138;8.502;2022-08-19T13:08:26;73;;;37;;
6951;SDS011;3515;50.138;8.502;2022-08-19T13:10:52;74;;;37;;
6951;SDS011;3515;50.138;8.502;2022-08-19T13:13:17;73;;;37;;
6951;SDS011;3515;50.138;8.502;2022-08-19T13:15:42;73;;;37;;
6951;SDS011;3515;50.138;8.502;2022-08-19T13:18:08;73;;;37;;
6951;SDS011;3515;50.138;8.502;2022-08-19T13:20:33;74;;;37;;
6951;SDS011;3515;50.138;8.502;2022-08-19T13:22:58;74;;;37;;
6951;SDS011;3515;50.138;8.502;2022-08-19T13:25:23;73;;;37;;
6951;SDS011;3515;50.138;8.502;2022-08-19T13:27:49;73;;;37;;
6951;SDS011;3515;50.138;8.502;2022-08-19T13:30:14;72;;;37;;
6951;SDS011;3515;50.138;8.502;2022-08-19T13:32:39;73;;;37;;
6951;SDS011;3515;50.138;8.502;2022-08-19T13:35:04;72;;;37;;
6951;SDS011;3515;50.138;8.502;2022-08-19T13:37:29;72;;;37;;
6951;SDS011;3515;50.138;8.502;2022-08-19T13:39:55;71;;;36;;
6951;SDS011;3515;50.138;8.502;2022-08-19T13:42:20;71;;;36;;
6951;SDS011;3515;50.138;8.502;2022-08-19T13:44:45;71;;;36;;
6951;SDS011;3515;50.138;8.502;2022-08-19T13:47:10;72;;;37;;
6951;SDS011;3515;50.138;8.502;2022-08-19T13:49:36;72;;;37;;
6951;SDS011;3515;50.138;8.502;2022-08-19T13:52:07;72;;;37;;
6951;SDS011;3515;50.138;8.502;2022-08-19T13:54:31;72;;;37;;
6951;SDS011;3515;50.138;8.502;2022-08-19T13:56:57;74;;;38;;
6951;SDS011;3515;50.138;8.502;2022-08-19T13:59:22;75;;;38;;
6951;SDS011;3515;50.138;8.502;2022-08-19T14:01:47;74;;;38;;
6951;SDS011;3515;50.138;8.502;2022-08-19T14:04:12;74;;;38;;
6951;SDS011;3515;50.138;8.502;2022-08-19T14:06:38;73;;;38;;
6951;SDS011;3515;50.138;8.502;2022-08-19T14:09:03;73;;;37;;
6951;SDS011;3515;50.138;8.502;2022-08-19T14:11:28;72;;;37;;
6951;SDS011;3515;50.138;8.502;2022-08-19T14:13:53;72;;;37;;
6951;SDS011;3515;50.138;8.502;2022-08-19T14:16:19;71;;;37;;
6951;SDS011;3515;50.138;8.502;2022-08-19T14:18:44;70;;;36;;
6951;SDS011;3515;50.138;8.502;2022-08-19T14:21:13;70;;;36;;
6951;SDS011;3515;50.138;8.502;2022-08-19T14:23:34;69;;;36;;
6951;SDS011;3515;50.138;8.502;2022-08-19T14:26:04;69;;;36;;
6951;SDS011;3515;50.138;8.502;2022-08-19T14:28:25;69;;;36;;
6951;SDS011;3515;50.138;8.502;2022-08-19T14:30:50;70;;;36;;
6951;SDS011;3515;50.138;8.502;2022-08-19T14:33:16;69;;;36;;
6951;SDS011;3515;50.138;8.502;2022-08-19T14:35:41;69;;;36;;
6951;SDS011;3515;50.138;8.502;2022-08-19T14:38:06;69;;;36;;
6951;SDS011;3515;50.138;8.502;2022-08-19T14:40:32;69;;;36;;
6951;SDS011;3515;50.138;8.502;2022-08-19T14:42:58;70;;;36;;
6951;SDS011;3515;50.138;8.502;2022-08-19T14:45:22;70;;;36;;
6951;SDS011;3515;50.138;8.502;2022-08-19T14:47:47;71;;;36;;
6951;SDS011;3515;50.138;8.502;2022-08-19T14:50:12;71;;;36;;
6951;SDS011;3515;50.138;8.502;2022-08-19T14:52:38;72;;;36;;
6951;SDS011;3515;50.138;8.502;2022-08-19T14:55:04;72;;;36;;
6951;SDS011;3515;50.138;8.502;2022-08-19T14:57:28;72;;;36;;
6951;SDS011;3515;50.138;8.502;2022-08-19T14:59:53;73;;;36;;
6951;SDS011;3515;50.138;8.502;2022-08-19T15:02:19;73;;;36;;
6951;SDS011;3515;50.138;8.502;2022-08-19T15:04:44;73;;;37;;
6951;SDS011;3515;50.138;8.502;2022-08-19T15:07:09;74;;;37;;
6951;SDS011;3515;50.138;8.502;2022-08-19T15:09:34;74;;;37;;
6951;SDS011;3515;50.138;8.502;2022-08-19T15:12:00;74;;;37;;
6951;SDS011;3515;50.138;8.502;2022-08-19T15:14:25;73;;;37;;
6951;SDS011;3515;50.138;8.502;2022-08-19T15:16:50;74;;;37;;
6951;SDS011;3515;50.138;8.502;2022-08-19T15:19:15;74;;;37;;
6951;SDS011;3515;50.138;8.502;2022-08-19T15:21:41;74;;;37;;
6951;SDS011;3515;50.138;8.502;2022-08-19T15:24:06;73;;;37;;
6951;SDS011;3515;50.138;8.502;2022-08-19T15:26:31;73;;;37;;
6951;SDS011;3515;50.138;8.502;2022-08-19T15:28:57;74;;;37;;
6951;SDS011;3515;50.138;8.502;2022-08-19T15:31:22;74;;;37;;
6951;SDS011;3515;50.138;8.502;2022-08-19T15:33:47;74;;;37;;
6951;SDS011;3515;50.138;8.502;2022-08-19T15:36:12;75;;;37;;
6951;SDS011;3515;50.138;8.502;2022-08-19T15:38:38;75;;;37;;
6951;SDS011;3515;50.138;8.502;2022-08-19T15:41:03;75;;;37;;
6951;SDS011;3515;50.138;8.502;2022-08-19T15:43:28;72;;;36;;
6951;SDS011;3515;50.138;8.502;2022-08-19T15:45:53;68;;;34;;
6951;SDS011;3515;50.138;8.502;2022-08-19T15:48:18;65;;;33;;
6951;SDS011;3515;50.138;8.502;2022-08-19T15:50:44;64;;;33;;
6951;SDS011;3515;50.138;8.502;2022-08-19T15:53:09;64;;;33;;
6951;SDS011;3515;50.138;8.502;2022-08-19T15:55:36;65;;;33;;
6951;SDS011;3515;50.138;8.502;2022-08-19T15:58:00;66;;;33;;
6951;SDS011;3515;50.138;8.502;2022-08-19T16:00:25;67;;;34;;
6951;SDS011;3515;50.138;8.502;2022-08-19T16:02:50;70;;;35;;
6951;SDS011;3515;50.138;8.502;2022-08-19T16:05:16;75;;;37;;
6951;SDS011;3515;50.138;8.502;2022-08-19T16:07:41;78;;;39;;
6951;SDS011;3515;50.138;8.502;2022-08-19T16:10:06;80;;;39;;